Westside, Georgia
Current Conditions -  °F | °C
As of 10:53 AM on Wednesday 22 Oct 2014 (Local Time) from KGVL Reporting Station
Clear Clear  
Wind Chill: 57°   Ceiling: Unl
Heat Index: 57°   Visibility: 10mi
Dew Point: 36°   Wind: 5mph
Humidity: 45%   Direction: 70°ENE
Pressure: 30.13"   Gusts: NA
Location:  34.3157°N, 83.8152°W
Report Text: KGVL 221453Z AUTO 07004KT 10SM CLR 14/02 A3013 RMK AO2 SLP195 T01390022 51018
Loading
Personal Weather Stations






























Interactive Weather Map
Tropical Storm Tracking
New forecast layout! Learn more

10-Day Weather Forecast

Advertisements
Track Severe Weather on mobile